Tyler, TX

02:45 AM CDT on iulie 05, 2015 (GMT -0500)
Front and Broadway | | Change Station
CLOSE
Current Station
Staţie meteo personală
Location: Tyler, TX
Elevation: 558 ft
Nearby Weather Stations
Consiliere activă: Flood Warning

Elev 558 ft 32.35 °N, 95.30 °W | Updated 12 minutes ago

Cer senin
Cer senin
75.2 °F
Feels Like 75 °F
N
4.7
Vânt variabil Vânt from SSV

astăzi
High -- | Low -- °F
--% Chance of Precip.
Ieri
High -- | Low -- °F
Precip. -- inch
6:19 AM 8:31 PM
Lună în descreştere, 87% visible
Presiunea 29.98 inch
Vizibilitatea 10.0 mile
Nori Cer senin
Indicele de căldură 75 °F
Punctul de rouă 72 °F
Umiditatea 89%
Precipitaţii 0.00 inch
Adâncimea zăpezii Not available.
UV 0 out of 12
Pollen .30 out of 12
Calitatea aerului Not available.
Flu Activity Not available.
METAR KTYR 050653Z AUTO 17006KT 10SM CLR 24/22 A3001 RMK AO2 SLP152 T02440222

More Conditions Fewer Conditions

Presiunea 29.98 inch
Vizibilitatea 10.0 mile
Nori Cer senin
Indicele de căldură 75 °F
Punctul de rouă 72 °F
Umiditatea 89%
Precipitaţii 0.00 inch
Adâncimea zăpezii Not available.
UV 0 out of 12
Pollen .30 out of 12
Calitatea aerului Not available.
Flu Activity Not available.
METAR KTYR 050653Z AUTO 17006KT 10SM CLR 24/22 A3001 RMK AO2 SLP152 T02440222

More Conditions Fewer Conditions

10-Day Weather Forecast

×

Almanac

Astronomie

Jul. 05, 2015 Răsărit Apus
Timpul Actual
Crepusculul Civil
Crepusculul nautic
Răsărit Astronomic
Luna
Durata zilei lumină
Lungimea zilei
Tomorrow will be .
, % of the Moon is Illuminated

Extremele de azi

State Highs State Lows

Community

WunderPhotos

Upload Photos

1,835,215 photos uploaded!

WunderBlogs® & News

Nearby

Calitatea aerului

  Calitatea aerului Index de calitate a aerului Poluat
Not available.

Adâncimea zapezii

Station Depth Elevation

Earthquake Activity

Oraş Distance Mag. Time & Date
Minimum magnitude displayed is 2.5.

Coastal Water Temperatures

Locul Temperatura

Stations

Nearby Weather Stations

Locaţia staţiei Temp Vânt rece Punctul de rouă Umiditatea Vânt Precip. Elev Actualizare Type
                   
Flood Warning
Statement as of 08:24 PM CDT on iulie 04, 2015

The Flood Warning continues for
the Sabine River near Mineola.
* Until further notice... or until the warning is cancelled.
* At 8:15 PM Saturday the stage was 16.3 feet.
* Minor flooding is occurring and minor flooding is forecast.
* Flood stage is 14.0 feet.
* Forecast... the river will continue to fall to a stage of 15.9 feet
by Monday morning.
* Impact... at 16.0 feet... expect flooding of low river bottoms with
secondary roadways along with picnic and recreational areas
becoming inundated as well. Ranchers should move cattle and
equipment to higher ground.


Lat... Lon 3278 9574 3263 9535 3257 9535 3259 9550 3273 9574